Time;durP1;ratioP1;P1;durP2;ratioP2;P2;SDS_P1;SDS_P2;PMS_P1;PMS_P2;Temp;Humidity;BMP_temperature;BMP_pressure;BME280_temperature;BME280_humidity;BME280_pressure;Samples;Min_cycle;Max_cycle;Signal;HPM_P1;HPM_P2
2023/10/30 00:00:45;;;;;;;3.60;1.20;;;12.10;99.90;;;;;;5034009;28;20062;-59
2023/10/30 00:03:11;;;;;;;4.55;1.10;;;12.10;99.90;;;;;;5033692;28;20036;-60
2023/10/30 00:05:37;;;;;;;12.88;1.67;;;12.00;99.90;;;;;;5033934;28;20029;-60
2023/10/30 00:08:04;;;;;;;8.23;1.85;;;12.10;99.90;;;;;;5033607;28;20120;-60
2023/10/30 00:10:29;;;;;;;8.07;1.25;;;12.10;99.90;;;;;;5033704;28;20473;-60
2023/10/30 00:12:55;;;;;;;10.13;1.88;;;12.10;99.90;;;;;;5033768;28;20028;-61
2023/10/30 00:15:23;;;;;;;9.95;1.80;;;12.10;99.90;;;;;;5033340;28;20385;-61
2023/10/30 00:17:48;;;;;;;10.45;1.40;;;12.10;99.90;;;;;;5033599;28;20030;-61
2023/10/30 00:20:14;;;;;;;6.07;1.30;;;12.20;99.90;;;;;;5033335;28;20399;-60
2023/10/30 00:22:39;;;;;;;4.85;1.67;;;12.20;99.90;;;;;;5033379;28;20030;-61
2023/10/30 00:25:05;;;;;;;11.27;1.23;;;12.10;99.90;;;;;;5033151;28;20030;-61
2023/10/30 00:27:31;;;;;;;7.25;1.27;;;12.10;99.90;;;;;;5033430;28;20013;-60
2023/10/30 00:29:56;;;;;;;4.57;1.40;;;12.20;99.90;;;;;;5033045;28;20377;-61
2023/10/30 00:32:22;;;;;;;9.93;1.23;;;12.20;99.90;;;;;;5033392;28;20104;-60
2023/10/30 00:34:48;;;;;;;6.60;1.05;;;12.20;99.90;;;;;;5031778;28;20033;-62
2023/10/30 00:37:13;;;;;;;7.88;1.33;;;12.20;99.90;;;;;;5033200;28;20021;-60
2023/10/30 00:39:39;;;;;;;9.95;1.65;;;12.20;99.90;;;;;;5033083;28;20025;-61
2023/10/30 00:42:05;;;;;;;8.90;1.17;;;12.20;99.90;;;;;;5032917;28;20518;-60
2023/10/30 00:44:30;;;;;;;8.55;1.27;;;12.20;99.90;;;;;;5032845;28;20024;-61
2023/10/30 00:46:56;;;;;;;2.40;0.90;;;12.20;99.90;;;;;;5033084;28;20040;-61
2023/10/30 00:49:22;;;;;;;12.65;1.83;;;12.10;99.90;;;;;;5032900;28;20025;-60
2023/10/30 00:51:47;;;;;;;8.35;1.58;;;12.20;99.90;;;;;;5033006;28;20025;-61
2023/10/30 00:54:13;;;;;;;11.40;2.05;;;12.10;99.90;;;;;;5032886;28;20026;-60
2023/10/30 00:56:38;;;;;;;7.32;1.10;;;12.10;99.90;;;;;;5033001;28;20080;-61
2023/10/30 00:59:04;;;;;;;9.80;1.42;;;12.10;99.90;;;;;;5032466;28;20484;-61
2023/10/30 01:01:30;;;;;;;5.40;1.48;;;12.10;99.90;;;;;;5032626;28;20033;-60
2023/10/30 01:03:55;;;;;;;7.72;1.35;;;12.10;99.90;;;;;;5032894;28;20024;-61
2023/10/30 01:06:21;;;;;;;7.45;1.23;;;12.10;99.90;;;;;;5032509;28;20040;-60
2023/10/30 01:08:46;;;;;;;10.25;1.50;;;12.10;99.90;;;;;;5032672;28;20037;-60
2023/10/30 01:11:12;;;;;;;7.35;1.25;;;12.20;99.90;;;;;;5032516;28;20066;-60
2023/10/30 01:13:37;;;;;;;6.57;1.25;;;12.20;99.90;;;;;;5032341;28;20022;-60
2023/10/30 01:16:05;;;;;;;14.32;1.88;;;12.20;99.90;;;;;;5032511;28;20066;-60
2023/10/30 01:18:30;;;;;;;6.43;1.10;;;12.20;99.90;;;;;;5032357;28;20025;-60
2023/10/30 01:20:56;;;;;;;9.50;2.17;;;12.30;99.90;;;;;;5032834;28;20460;-61
2023/10/30 01:23:21;;;;;;;10.75;1.67;;;12.30;99.90;;;;;;5032128;28;20018;-60
2023/10/30 01:25:47;;;;;;;5.20;1.00;;;12.40;99.90;;;;;;5032348;28;20540;-60
2023/10/30 01:28:14;;;;;;;8.85;1.52;;;12.40;99.90;;;;;;5032443;28;20022;-60
2023/10/30 01:30:40;;;;;;;13.98;2.33;;;12.40;99.90;;;;;;5032344;28;20044;-60
2023/10/30 01:33:05;;;;;;;10.05;1.38;;;12.40;99.90;;;;;;5032316;28;20033;-60
2023/10/30 01:35:31;;;;;;;6.45;1.10;;;12.40;99.90;;;;;;5032144;28;20599;-61
2023/10/30 01:37:57;;;;;;;10.80;1.30;;;12.40;99.90;;;;;;5031976;28;20481;-60
2023/10/30 01:40:23;;;;;;;4.07;0.70;;;12.40;99.90;;;;;;5031997;28;20029;-61
2023/10/30 01:42:48;;;;;;;8.88;2.08;;;12.30;99.90;;;;;;5032113;28;20059;-61
2023/10/30 01:45:14;;;;;;;9.18;1.45;;;12.30;99.90;;;;;;5031527;28;20034;-60
2023/10/30 01:47:40;;;;;;;8.00;1.65;;;12.30;99.90;;;;;;5031669;28;20080;-59
2023/10/30 01:50:07;;;;;;;10.05;2.63;;;12.40;99.90;;;;;;5031937;28;20047;-60
2023/10/30 01:52:34;;;;;;;3.85;1.00;;;12.40;99.90;;;;;;5031826;28;20039;-60
2023/10/30 01:55:00;;;;;;;8.55;1.70;;;12.40;99.90;;;;;;5031643;28;20036;-59
2023/10/30 01:57:27;;;;;;;5.80;1.10;;;12.40;99.90;;;;;;5031853;28;20041;-61
2023/10/30 01:59:54;;;;;;;4.22;1.15;;;12.40;99.90;;;;;;5031155;28;20045;-60
2023/10/30 02:02:21;;;;;;;6.90;2.05;;;12.50;99.90;;;;;;5031637;28;20045;-61
2023/10/30 02:04:47;;;;;;;9.60;1.65;;;12.50;99.90;;;;;;5031405;28;20048;-60
2023/10/30 02:07:13;;;;;;;13.30;2.10;;;12.50;99.90;;;;;;5031476;28;20033;-61
2023/10/30 02:09:39;;;;;;;5.95;0.98;;;12.50;99.90;;;;;;5031417;28;20164;-60
2023/10/30 02:12:05;;;;;;;6.63;1.15;;;12.60;99.90;;;;;;5031291;28;20033;-61
2023/10/30 02:14:31;;;;;;;6.20;1.90;;;12.60;99.90;;;;;;5031299;28;20021;-60
2023/10/30 02:16:56;;;;;;;6.22;1.10;;;12.60;99.90;;;;;;5031419;28;20062;-60
2023/10/30 02:19:23;;;;;;;4.10;1.13;;;12.60;99.90;;;;;;5031212;28;20025;-60
2023/10/30 02:21:51;;;;;;;7.57;1.33;;;12.60;99.90;;;;;;5030896;28;20484;-62
2023/10/30 02:24:17;;;;;;;4.30;1.15;;;12.50;99.90;;;;;;5031093;28;20028;-60
2023/10/30 02:26:43;;;;;;;5.47;1.40;;;12.50;99.90;;;;;;5030217;28;20070;-60
2023/10/30 02:29:09;;;;;;;7.20;1.27;;;12.50;99.90;;;;;;5030804;28;20095;-60
2023/10/30 02:31:35;;;;;;;8.25;1.38;;;12.60;99.90;;;;;;5031012;28;20104;-60
2023/10/30 02:34:01;;;;;;;13.02;1.27;;;12.50;99.90;;;;;;5031101;28;20108;-60
2023/10/30 02:36:26;;;;;;;8.18;1.45;;;12.50;99.90;;;;;;5030907;28;20057;-61
2023/10/30 02:38:53;;;;;;;8.73;1.77;;;12.50;99.90;;;;;;5031084;28;20014;-61
2023/10/30 02:41:19;;;;;;;7.97;1.30;;;12.40;99.90;;;;;;5031017;28;20041;-59
2023/10/30 02:43:45;;;;;;;8.40;1.42;;;12.40;99.90;;;;;;5030670;28;20021;-62
2023/10/30 02:46:10;;;;;;;8.30;1.40;;;12.30;99.90;;;;;;5013005;28;20031;-60
2023/10/30 02:48:37;;;;;;;12.27;1.55;;;12.30;99.90;;;;;;5030966;28;20156;-60
2023/10/30 02:51:03;;;;;;;11.20;1.63;;;12.30;99.90;;;;;;5030448;28;20033;-60
2023/10/30 02:53:29;;;;;;;8.68;1.23;;;12.30;99.90;;;;;;5030794;28;20022;-60
2023/10/30 02:55:54;;;;;;;8.27;1.58;;;12.20;99.90;;;;;;5030679;28;20047;-64
2023/10/30 02:58:20;;;;;;;8.75;1.30;;;12.20;99.90;;;;;;5029721;28;20021;-60
2023/10/30 03:00:46;;;;;;;7.63;1.23;;;12.20;99.90;;;;;;5030517;28;20538;-61
2023/10/30 03:03:12;;;;;;;6.20;1.63;;;12.10;99.90;;;;;;5030442;28;20029;-61
2023/10/30 03:05:37;;;;;;;10.90;1.23;;;12.10;99.90;;;;;;5030657;28;20075;-63
2023/10/30 03:08:03;;;;;;;7.72;1.35;;;12.00;99.90;;;;;;5030298;28;20037;-61
2023/10/30 03:10:29;;;;;;;4.55;1.08;;;12.00;99.90;;;;;;5030603;28;20063;-61
2023/10/30 03:12:55;;;;;;;5.85;1.08;;;11.90;99.90;;;;;;5030626;28;20045;-60
2023/10/30 03:15:21;;;;;;;10.60;1.35;;;11.80;99.90;;;;;;5030147;28;20039;-71
2023/10/30 03:17:47;;;;;;;6.97;1.02;;;11.80;99.90;;;;;;5030448;28;20037;-60
2023/10/30 03:20:13;;;;;;;7.45;2.17;;;11.90;99.90;;;;;;5030343;28;20021;-59
2023/10/30 03:22:39;;;;;;;10.05;1.88;;;11.80;99.90;;;;;;5030504;28;20025;-61
2023/10/30 03:25:05;;;;;;;7.13;1.63;;;11.80;99.90;;;;;;5030489;28;20030;-62
2023/10/30 03:27:30;;;;;;;9.88;1.88;;;11.70;99.90;;;;;;5030525;28;20033;-52
2023/10/30 03:29:56;;;;;;;6.57;1.10;;;11.70;99.90;;;;;;5030306;28;20017;-55
2023/10/30 03:32:21;;;;;;;7.13;1.38;;;11.70;99.90;;;;;;5030369;28;20464;-52
2023/10/30 03:34:47;;;;;;;7.68;1.67;;;11.60;99.90;;;;;;5030125;28;20064;-51
2023/10/30 03:37:13;;;;;;;9.63;1.75;;;11.60;99.90;;;;;;5030536;28;20420;-55
2023/10/30 03:39:38;;;;;;;4.90;1.08;;;11.50;99.90;;;;;;5030232;28;20025;-60
2023/10/30 03:42:04;;;;;;;7.30;1.17;;;11.50;99.90;;;;;;5030097;28;20030;-60
2023/10/30 03:44:30;;;;;;;7.90;1.50;;;11.50;99.90;;;;;;5030090;28;20033;-56
2023/10/30 03:46:55;;;;;;;6.18;1.10;;;11.50;99.90;;;;;;5030219;28;20034;-56
2023/10/30 03:49:21;;;;;;;9.40;1.65;;;11.50;99.90;;;;;;5030075;28;20045;-55
2023/10/30 03:51:51;;;;;;;4.60;1.13;;;11.50;99.90;;;;;;5030502;28;20030;-60
2023/10/30 03:54:16;;;;;;;8.23;0.85;;;11.50;99.90;;;;;;5030156;28;20040;-56
2023/10/30 03:56:42;;;;;;;8.32;1.15;;;11.40;99.90;;;;;;5030264;28;20029;-59
2023/10/30 03:59:08;;;;;;;8.48;1.23;;;11.50;99.90;;;;;;5029677;28;20037;-58
2023/10/30 04:01:35;;;;;;;4.95;0.88;;;11.50;99.90;;;;;;5030045;28;20069;-56
2023/10/30 04:04:01;;;;;;;6.72;1.20;;;11.50;99.90;;;;;;5030103;28;20053;-59
2023/10/30 04:06:27;;;;;;;7.30;1.00;;;11.50;99.90;;;;;;5030168;28;20469;-54
2023/10/30 04:08:52;;;;;;;11.10;0.93;;;11.50;99.90;;;;;;5030816;28;20017;-57
2023/10/30 04:11:18;;;;;;;9.25;1.67;;;11.50;99.90;;;;;;5033667;28;20049;-58
2023/10/30 04:13:44;;;;;;;7.93;1.25;;;11.50;99.90;;;;;;5033558;28;20025;-57
2023/10/30 04:16:11;;;;;;;9.02;1.48;;;11.50;99.90;;;;;;5033410;28;20112;-52
2023/10/30 04:18:37;;;;;;;6.50;1.10;;;11.50;99.90;;;;;;5033684;28;20025;-58
2023/10/30 04:21:04;;;;;;;9.38;1.58;;;11.50;99.90;;;;;;5033488;28;20040;-56
2023/10/30 04:23:29;;;;;;;5.97;1.20;;;11.50;99.90;;;;;;5033204;28;20036;-56
2023/10/30 04:25:56;;;;;;;5.72;1.27;;;11.60;99.90;;;;;;5033608;28;20030;-58
2023/10/30 04:28:21;;;;;;;9.40;1.48;;;11.60;99.90;;;;;;5033036;28;20033;-56
2023/10/30 04:30:47;;;;;;;12.57;1.10;;;11.60;99.90;;;;;;5033373;28;20037;-56
2023/10/30 04:33:13;;;;;;;6.63;1.27;;;11.70;99.90;;;;;;5033288;28;20028;-60
2023/10/30 04:35:38;;;;;;;4.57;1.67;;;11.80;99.90;;;;;;5033351;28;20029;-57
2023/10/30 04:38:04;;;;;;;9.73;1.20;;;11.80;99.90;;;;;;5033266;28;20056;-58
2023/10/30 04:40:30;;;;;;;6.15;1.00;;;11.80;99.90;;;;;;5033428;28;20068;-58
2023/10/30 04:42:55;;;;;;;10.40;2.17;;;11.80;99.90;;;;;;5033008;28;20029;-58
2023/10/30 04:45:21;;;;;;;13.50;2.45;;;11.90;99.90;;;;;;5032999;28;20366;-59
2023/10/30 04:47:47;;;;;;;8.75;1.20;;;11.90;99.90;;;;;;5032785;28;20025;-57
2023/10/30 04:50:12;;;;;;;12.38;1.55;;;11.90;99.90;;;;;;5033050;28;20025;-57
2023/10/30 04:52:38;;;;;;;10.57;1.48;;;11.90;99.90;;;;;;5032914;28;20053;-58
2023/10/30 04:55:04;;;;;;;5.20;0.98;;;11.90;99.90;;;;;;5033012;28;20041;-59
2023/10/30 04:57:30;;;;;;;10.70;1.67;;;12.00;99.90;;;;;;5032843;28;20033;-58
2023/10/30 04:59:56;;;;;;;9.25;1.40;;;12.10;99.90;;;;;;5014857;28;20092;-58
2023/10/30 05:02:21;;;;;;;9.27;1.67;;;12.10;99.90;;;;;;5032738;28;20037;-60
2023/10/30 05:04:47;;;;;;;8.57;1.35;;;12.10;99.90;;;;;;5032693;28;20051;-60
2023/10/30 05:07:12;;;;;;;8.65;1.38;;;12.20;99.90;;;;;;5032608;28;20104;-61
2023/10/30 05:09:38;;;;;;;8.30;1.48;;;12.20;99.90;;;;;;5032597;28;20121;-60
2023/10/30 05:12:04;;;;;;;5.50;1.33;;;12.20;99.90;;;;;;5032653;28;20107;-58
2023/10/30 05:14:30;;;;;;;12.20;1.58;;;12.20;99.90;;;;;;5014343;28;20427;-58
2023/10/30 05:16:55;;;;;;;7.45;2.45;;;12.30;99.90;;;;;;5032575;28;20491;-60
2023/10/30 05:19:21;;;;;;;9.13;1.50;;;12.30;99.90;;;;;;5032395;28;20030;-58
2023/10/30 05:21:47;;;;;;;6.82;1.48;;;12.30;99.90;;;;;;5031488;28;20428;-60
2023/10/30 05:24:12;;;;;;;9.63;1.42;;;12.30;99.90;;;;;;5032212;28;20037;-59
2023/10/30 05:26:39;;;;;;;7.22;0.90;;;12.30;99.90;;;;;;5032037;28;20018;-59
2023/10/30 05:29:04;;;;;;;5.68;1.77;;;12.20;99.90;;;;;;5032064;28;20028;-58
2023/10/30 05:31:30;;;;;;;9.32;1.65;;;12.30;99.90;;;;;;5031968;28;20037;-59
2023/10/30 05:33:55;;;;;;;7.38;1.77;;;12.20;99.90;;;;;;5032319;28;20025;-59
2023/10/30 05:36:21;;;;;;;7.50;1.17;;;12.20;99.90;;;;;;5032081;28;20539;-59
2023/10/30 05:38:47;;;;;;;11.40;1.25;;;12.10;99.90;;;;;;5032156;28;20057;-63
2023/10/30 05:41:12;;;;;;;8.02;1.35;;;12.10;99.90;;;;;;5031820;28;20045;-58
2023/10/30 05:43:38;;;;;;;6.30;1.38;;;12.10;99.90;;;;;;5031683;28;20105;-56
2023/10/30 05:46:03;;;;;;;8.98;1.27;;;12.10;99.90;;;;;;5031560;28;20029;-57
2023/10/30 05:48:29;;;;;;;9.65;1.65;;;12.00;99.90;;;;;;5031968;28;20065;-57
2023/10/30 05:50:55;;;;;;;8.60;1.30;;;12.10;99.90;;;;;;5031948;28;20021;-58
2023/10/30 05:53:20;;;;;;;11.15;1.25;;;12.10;99.90;;;;;;5031958;28;20040;-56
2023/10/30 05:55:46;;;;;;;6.90;1.65;;;12.00;99.90;;;;;;5031722;28;20117;-60
2023/10/30 05:58:12;;;;;;;9.25;1.13;;;12.10;99.90;;;;;;5031513;28;20095;-55
2023/10/30 06:00:38;;;;;;;9.73;1.60;;;12.10;99.90;;;;;;5031452;28;20045;-53
2023/10/30 06:03:14;;;;;;;6.70;1.23;;;12.10;99.90;;;;;;5031433;28;20549;-54
2023/10/30 06:05:40;;;;;;;9.20;1.02;;;12.10;99.90;;;;;;5031762;28;20112;-56
2023/10/30 06:08:05;;;;;;;7.65;1.30;;;12.10;99.90;;;;;;5013660;28;20120;-58
2023/10/30 06:10:31;;;;;;;5.43;1.02;;;12.20;99.90;;;;;;5031545;28;20021;-57
2023/10/30 06:12:57;;;;;;;12.43;1.83;;;12.20;99.90;;;;;;5031193;28;20452;-55
2023/10/30 06:15:22;;;;;;;11.88;2.03;;;12.20;99.90;;;;;;5031246;28;20439;-58
2023/10/30 06:17:48;;;;;;;9.15;1.65;;;12.20;99.90;;;;;;5031191;28;20036;-60
2023/10/30 06:20:13;;;;;;;9.00;1.38;;;12.30;99.90;;;;;;5031549;28;20109;-57
2023/10/30 06:22:39;;;;;;;5.07;1.23;;;12.20;99.90;;;;;;5031661;28;20402;-62
2023/10/30 06:25:05;;;;;;;4.70;1.25;;;12.30;99.90;;;;;;5031182;28;20013;-56
2023/10/30 06:27:34;;;;;;;9.40;1.23;;;12.20;99.90;;;;;;5031196;28;20167;-56
2023/10/30 06:30:00;;;;;;;9.52;1.38;;;12.20;99.90;;;;;;5030985;28;20048;-59
2023/10/30 06:32:25;;;;;;;9.00;1.20;;;12.20;99.90;;;;;;5031111;28;20684;-57
2023/10/30 06:34:51;;;;;;;11.55;1.15;;;12.20;99.90;;;;;;5031033;28;20025;-57
2023/10/30 06:37:17;;;;;;;4.43;0.93;;;12.30;99.90;;;;;;5030971;28;20021;-56
2023/10/30 06:39:43;;;;;;;11.38;1.85;;;12.30;99.90;;;;;;5031041;28;20031;-58
2023/10/30 06:42:08;;;;;;;3.80;1.30;;;12.30;99.90;;;;;;5030846;28;20380;-60
2023/10/30 06:44:34;;;;;;;6.20;0.90;;;12.30;99.90;;;;;;5030424;28;20026;-55
2023/10/30 06:46:59;;;;;;;7.07;1.40;;;12.30;99.90;;;;;;5030829;28;20033;-58
2023/10/30 06:49:25;;;;;;;2.92;0.68;;;12.30;99.90;;;;;;5030941;28;20021;-55
2023/10/30 06:51:51;;;;;;;4.15;1.55;;;12.30;99.90;;;;;;5030478;28;20025;-56
2023/10/30 06:54:17;;;;;;;11.70;1.02;;;12.30;99.90;;;;;;5030664;28;20186;-55
2023/10/30 06:56:42;;;;;;;6.97;1.33;;;12.30;99.90;;;;;;5030626;28;20024;-57
2023/10/30 06:59:12;;;;;;;6.47;1.13;;;12.30;99.90;;;;;;5030323;28;20045;-53
2023/10/30 07:01:45;;;;;;;5.13;1.27;;;12.30;99.90;;;;;;5030625;28;20041;-54
2023/10/30 07:04:11;;;;;;;5.60;0.98;;;12.30;99.90;;;;;;5030702;28;20025;-55
2023/10/30 07:06:42;;;;;;;3.58;1.33;;;12.30;99.90;;;;;;5030780;28;20032;-56
2023/10/30 07:09:08;;;;;;;11.18;1.13;;;12.30;99.90;;;;;;5030351;28;20098;-57
2023/10/30 07:11:37;;;;;;;5.20;0.90;;;12.30;99.90;;;;;;5030408;28;20559;-60
2023/10/30 07:14:03;;;;;;;;;;;12.40;99.90;;;;;;5030931;28;20086;-56
2023/10/30 07:16:29;;;;;;;6.72;1.10;;;12.40;99.90;;;;;;5030509;28;19905;-58
2023/10/30 07:18:56;;;;;;;10.60;1.80;;;12.40;99.90;;;;;;5030303;28;20091;-58
2023/10/30 07:21:22;;;;;;;7.50;1.52;;;12.40;99.90;;;;;;5030274;28;20037;-55
2023/10/30 07:23:48;;;;;;;3.75;1.00;;;12.40;99.90;;;;;;5030205;28;20551;-58
2023/10/30 07:26:13;;;;;;;8.93;1.58;;;12.50;99.90;;;;;;5030348;28;20072;-59
2023/10/30 07:28:39;;;;;;;8.73;1.42;;;12.50;99.90;;;;;;5030475;28;20017;-60
2023/10/30 07:31:04;;;;;;;7.13;1.52;;;12.50;99.90;;;;;;5030408;28;20021;-61
2023/10/30 07:33:30;;;;;;;5.88;1.30;;;12.60;99.90;;;;;;5030174;28;20084;-59
2023/10/30 07:35:56;;;;;;;12.80;1.70;;;12.70;99.90;;;;;;5030239;28;20091;-57
2023/10/30 07:38:22;;;;;;;10.77;1.77;;;12.70;99.90;;;;;;5030354;28;20408;-55
2023/10/30 07:40:47;;;;;;;5.35;1.13;;;12.80;99.90;;;;;;5030268;28;20087;-54
2023/10/30 07:43:13;;;;;;;7.43;1.17;;;12.80;99.90;;;;;;5030529;28;20361;-54
2023/10/30 07:45:41;;;;;;;6.00;1.25;;;12.80;99.90;;;;;;5033874;28;20033;-54
2023/10/30 07:48:07;;;;;;;4.50;1.02;;;12.80;99.90;;;;;;5034180;28;20032;-60
2023/10/30 07:50:35;;;;;;;6.75;1.02;;;12.80;99.90;;;;;;5034116;28;20105;-57
2023/10/30 07:53:01;;;;;;;5.50;0.88;;;12.80;99.90;;;;;;5034017;28;20033;-56
2023/10/30 07:55:27;;;;;;;9.65;1.70;;;12.80;99.90;;;;;;5034297;28;20029;-55
2023/10/30 07:57:53;;;;;;;3.00;0.90;;;12.90;99.90;;;;;;5033885;28;20512;-58
2023/10/30 08:00:18;;;;;;;6.32;1.05;;;13.00;99.90;;;;;;5033775;28;20049;-58
2023/10/30 08:02:46;;;;;;;9.82;1.65;;;13.00;99.90;;;;;;5033925;28;20068;-58
2023/10/30 08:05:14;;;;;;;7.57;1.40;;;13.10;99.90;;;;;;5033830;28;20104;-58
2023/10/30 08:07:47;;;;;;;8.60;1.50;;;13.20;99.90;;;;;;5028800;28;20056;-58
2023/10/30 08:10:13;;;;;;;6.65;1.38;;;13.20;99.90;;;;;;5033273;28;20045;-56
2023/10/30 08:12:40;;;;;;;6.13;0.98;;;13.20;99.90;;;;;;5033887;28;20171;-59
2023/10/30 08:15:06;;;;;;;6.47;1.20;;;13.30;99.90;;;;;;5033630;28;20570;-60
2023/10/30 08:17:32;;;;;;;8.23;1.30;;;13.40;99.90;;;;;;5033463;28;20104;-57
2023/10/30 08:19:58;;;;;;;8.23;1.27;;;13.60;99.90;;;;;;5033468;28;20033;-55
2023/10/30 08:22:23;;;;;;;13.48;1.95;;;13.70;99.90;;;;;;5033487;28;20026;-56
2023/10/30 08:24:49;;;;;;;6.53;1.52;;;13.80;99.90;;;;;;5033459;28;20061;-59
2023/10/30 08:27:15;;;;;;;4.68;1.08;;;13.90;99.90;;;;;;5033263;28;20029;-59
2023/10/30 08:29:40;;;;;;;7.25;1.77;;;13.90;99.90;;;;;;5015463;28;20511;-59
2023/10/30 08:32:06;;;;;;;4.95;1.17;;;13.90;99.90;;;;;;5033402;28;20079;-60
2023/10/30 08:34:32;;;;;;;7.38;1.30;;;13.80;99.90;;;;;;5033093;28;20071;-59
2023/10/30 08:36:58;;;;;;;5.13;1.00;;;13.70;99.90;;;;;;5033185;28;20029;-58
2023/10/30 08:39:23;;;;;;;5.40;1.17;;;13.70;99.90;;;;;;5033325;28;20049;-61
2023/10/30 08:41:49;;;;;;;3.90;1.02;;;13.70;99.90;;;;;;5032806;28;20045;-59
2023/10/30 08:44:14;;;;;;;5.82;1.17;;;13.70;99.90;;;;;;5032859;28;20018;-59
2023/10/30 08:46:40;;;;;;;3.10;0.93;;;13.70;99.90;;;;;;5032971;28;20030;-59
2023/10/30 08:49:06;;;;;;;11.45;1.60;;;13.80;99.90;;;;;;5020525;28;20029;-61
2023/10/30 08:51:31;;;;;;;6.28;1.75;;;13.80;99.90;;;;;;5032248;28;20022;-59
2023/10/30 08:53:57;;;;;;;5.78;1.00;;;13.90;99.90;;;;;;5032563;28;20022;-59
2023/10/30 08:56:22;;;;;;;6.13;1.42;;;13.90;99.90;;;;;;5031579;28;20024;-58
2023/10/30 08:58:48;;;;;;;10.07;1.25;;;13.90;99.90;;;;;;5026890;28;20046;-59
2023/10/30 09:01:14;;;;;;;9.00;1.50;;;13.80;99.90;;;;;;5032144;28;20501;-58
2023/10/30 09:03:42;;;;;;;11.02;1.33;;;13.80;99.90;;;;;;5032680;28;20018;-58
2023/10/30 09:06:08;;;;;;;11.27;1.83;;;13.80;99.90;;;;;;5032526;28;20387;-60
2023/10/30 09:08:34;;;;;;;10.98;1.38;;;13.80;99.90;;;;;;5032904;28;20018;-59
2023/10/30 09:10:59;;;;;;;3.05;1.10;;;13.90;99.90;;;;;;5032510;28;20068;-57
2023/10/30 09:13:25;;;;;;;10.75;1.73;;;14.00;99.90;;;;;;5032418;28;20022;-58
2023/10/30 09:15:50;;;;;;;6.47;1.42;;;14.00;99.90;;;;;;5032389;28;20030;-59
2023/10/30 09:18:16;;;;;;;6.28;1.08;;;14.10;99.90;;;;;;5032252;28;20041;-58
2023/10/30 09:20:42;;;;;;;4.28;0.98;;;14.30;99.90;;;;;;5032263;28;20485;-60
2023/10/30 09:23:08;;;;;;;5.75;0.95;;;14.40;99.90;;;;;;5032072;28;20102;-59
2023/10/30 09:25:33;;;;;;;7.10;1.05;;;14.60;99.90;;;;;;5032292;28;20029;-59
2023/10/30 09:28:00;;;;;;;8.23;1.45;;;14.90;99.90;;;;;;5031850;28;20380;-58
2023/10/30 09:30:30;;;;;;;4.50;1.17;;;15.10;99.90;;;;;;5032229;28;20516;-59
2023/10/30 09:32:59;;;;;;;5.35;1.00;;;15.10;99.90;;;;;;5031881;28;20041;-56
2023/10/30 09:35:32;;;;;;;3.35;1.08;;;14.90;99.90;;;;;;5028383;28;20041;-59
2023/10/30 09:37:58;;;;;;;2.63;0.95;;;14.80;99.90;;;;;;5032141;28;20033;-59
2023/10/30 09:40:27;;;;;;;6.18;1.10;;;15.00;99.90;;;;;;5031748;28;20036;-57
2023/10/30 09:42:54;;;;;;;3.50;1.00;;;15.50;99.90;;;;;;5032143;28;20037;-59
2023/10/30 09:45:24;;;;;;;5.63;1.17;;;15.90;99.90;;;;;;5031900;28;20113;-62
2023/10/30 09:47:56;;;;;;;2.42;0.77;;;16.20;99.90;;;;;;5031740;28;20045;-57
2023/10/30 09:50:24;;;;;;;9.82;1.20;;;16.60;99.90;;;;;;5031990;28;20104;-58
2023/10/30 09:52:51;;;;;;;1.65;0.75;;;16.90;99.90;;;;;;5031586;28;20017;-59
2023/10/30 09:55:18;;;;;;;3.63;0.80;;;17.40;99.90;;;;;;5031801;28;20061;-58
2023/10/30 09:57:47;;;;;;;3.20;0.70;;;17.80;99.90;;;;;;5031554;28;20025;-60
2023/10/30 10:00:14;;;;;;;4.43;1.15;;;18.00;99.90;;;;;;5031558;28;20797;-60
2023/10/30 10:02:40;;;;;;;6.30;1.20;;;17.80;99.90;;;;;;5031277;28;20052;-60
2023/10/30 10:05:08;;;;;;;6.13;0.80;;;17.80;99.90;;;;;;5031663;28;20041;-59
2023/10/30 10:07:34;;;;;;;5.85;1.00;;;17.60;99.90;;;;;;5024598;28;20032;-57
2023/10/30 10:10:01;;;;;;;10.00;1.10;;;17.50;99.90;;;;;;5031518;28;20033;-60
2023/10/30 10:12:29;;;;;;;5.57;0.90;;;17.20;99.90;;;;;;5031368;28;20013;-59
2023/10/30 10:14:54;;;;;;;2.33;1.00;;;17.00;99.90;;;;;;5031140;28;20392;-58
2023/10/30 10:17:20;;;;;;;4.35;1.35;;;16.70;99.90;;;;;;5030396;28;20025;-57
2023/10/30 10:19:46;;;;;;;5.45;1.08;;;16.40;99.90;;;;;;5029953;28;20087;-58
2023/10/30 10:22:27;;;;;;;8.20;1.60;;;16.20;99.90;;;;;;5030624;28;20547;-58
2023/10/30 10:24:53;;;;;;;4.53;1.10;;;16.10;99.90;;;;;;5030260;28;20048;-56
2023/10/30 10:27:19;;;;;;;7.13;1.00;;;16.10;99.90;;;;;;5030518;28;20037;-57
2023/10/30 10:29:52;;;;;;;5.90;0.90;;;16.00;99.90;;;;;;5030138;28;20396;-57
2023/10/30 10:32:17;;;;;;;5.03;1.02;;;16.10;99.90;;;;;;5030856;28;20033;-57
2023/10/30 10:34:46;;;;;;;6.53;1.20;;;16.10;99.90;;;;;;5030897;28;20024;-58
2023/10/30 10:37:18;;;;;;;8.95;1.15;;;16.10;99.90;;;;;;5031162;28;20033;-57
2023/10/30 10:39:48;;;;;;;8.65;1.50;;;16.10;99.90;;;;;;5031142;28;20583;-58
2023/10/30 10:42:14;;;;;;;;;;;15.90;99.90;;;;;;5031478;28;20077;-57
2023/10/30 10:44:39;;;;;;;7.88;1.40;;;15.90;99.90;;;;;;5031211;28;19909;-58
2023/10/30 10:47:05;;;;;;;7.45;1.23;;;15.90;99.90;;;;;;5030720;28;20029;-58
2023/10/30 10:49:31;;;;;;;4.57;1.10;;;16.00;99.90;;;;;;5030970;28;20087;-57
2023/10/30 10:51:58;;;;;;;4.95;1.20;;;15.90;99.90;;;;;;5030742;28;20064;-60
2023/10/30 10:54:29;;;;;;;8.02;1.60;;;15.80;99.90;;;;;;5030744;28;20025;-57
2023/10/30 10:56:56;;;;;;;6.93;0.90;;;15.70;99.90;;;;;;5030983;28;20032;-57
2023/10/30 10:59:28;;;;;;;4.53;1.00;;;15.70;99.90;;;;;;5030639;28;20064;-57
2023/10/30 11:01:57;;;;;;;9.50;1.27;;;15.50;99.90;;;;;;5030959;28;20535;-57
2023/10/30 11:04:23;;;;;;;7.15;0.80;;;15.40;99.90;;;;;;5030595;28;20473;-55
2023/10/30 11:06:55;;;;;;;6.65;1.00;;;15.40;99.90;;;;;;5030691;28;20038;-59
2023/10/30 11:09:28;;;;;;;5.65;1.38;;;15.30;99.90;;;;;;5030756;28;20076;-57
2023/10/30 11:12:35;;;;;;;7.00;1.38;;;15.20;99.90;;;;;;5030709;28;20037;-55
2023/10/30 11:15:12;;;;;;;6.43;1.23;;;15.20;99.90;;;;;;4953117;28;20029;-57
2023/10/30 11:17:38;;;;;;;11.02;1.08;;;15.20;99.90;;;;;;5030441;28;20545;-58
2023/10/30 11:20:10;;;;;;;6.78;1.33;;;15.10;99.90;;;;;;5012337;28;20026;-58
2023/10/30 11:22:39;;;;;;;4.22;1.05;;;15.10;99.90;;;;;;5028466;28;20042;-57
2023/10/30 11:25:05;;;;;;;10.98;1.23;;;15.10;99.90;;;;;;5030450;28;20021;-58
2023/10/30 11:27:35;;;;;;;7.07;1.13;;;15.20;99.90;;;;;;5029855;28;20030;-59
2023/10/30 11:30:07;;;;;;;3.65;0.85;;;15.10;99.90;;;;;;5030418;28;20077;-59
2023/10/30 11:32:49;;;;;;;6.00;0.82;;;15.10;99.90;;;;;;5029959;28;20509;-59
2023/10/30 11:35:19;;;;;;;6.07;1.17;;;15.20;99.90;;;;;;5030195;28;20469;-59
2023/10/30 11:37:45;;;;;;;4.70;1.00;;;15.20;99.90;;;;;;5030447;28;20021;-59
2023/10/30 11:40:15;;;;;;;6.78;1.23;;;15.20;99.90;;;;;;5030276;28;20092;-58
2023/10/30 11:42:43;;;;;;;7.32;1.00;;;15.10;99.90;;;;;;5030377;28;20091;-60
2023/10/30 11:45:25;;;;;;;7.13;1.48;;;15.10;99.90;;;;;;5030346;28;20028;-61
2023/10/30 11:48:05;;;;;;;7.10;1.60;;;15.10;99.90;;;;;;5030351;28;20033;-59
2023/10/30 11:50:53;;;;;;;4.57;1.00;;;15.10;99.90;;;;;;5030097;28;20030;-59
2023/10/30 11:53:21;;;;;;;5.43;1.73;;;15.10;99.90;;;;;;5030260;28;20022;-59
2023/10/30 11:55:50;;;;;;;9.57;1.63;;;15.10;99.90;;;;;;5030162;28;20022;-59
2023/10/30 11:58:16;;;;;;;4.88;1.02;;;15.10;99.90;;;;;;5030282;28;20025;-60
2023/10/30 12:00:46;;;;;;;6.60;1.17;;;15.10;99.90;;;;;;5029825;28;20045;-59
2023/10/30 12:03:13;;;;;;;11.75;1.08;;;15.10;99.90;;;;;;5030172;28;20056;-59
2023/10/30 12:05:38;;;;;;;5.78;1.02;;;15.40;99.90;;;;;;5026094;28;20031;-59
2023/10/30 12:08:04;;;;;;;5.22;1.30;;;16.90;99.90;;;;;;5029726;28;20033;-59
2023/10/30 12:10:30;;;;;;;7.72;1.08;;;18.50;99.90;;;;;;5029923;28;20056;-60
2023/10/30 12:12:56;;;;;;;11.07;1.80;;;19.10;99.90;;;;;;5029928;28;20032;-60
2023/10/30 12:15:22;;;;;;;8.25;1.10;;;19.00;99.90;;;;;;5029720;28;20026;-60
2023/10/30 12:17:47;;;;;;;7.07;0.90;;;19.20;99.90;;;;;;5029844;28;20030;-61
2023/10/30 12:20:14;;;;;;;9.52;0.95;;;19.50;99.90;;;;;;5029798;28;20083;-60
2023/10/30 12:22:42;;;;;;;4.70;0.98;;;19.10;99.90;;;;;;5029261;28;20038;-59
2023/10/30 12:25:13;;;;;;;6.40;1.00;;;18.60;99.90;;;;;;5029593;28;20441;-59
2023/10/30 12:27:39;;;;;;;9.63;1.13;;;17.80;99.90;;;;;;5029633;28;20033;-60
2023/10/30 12:30:12;;;;;;;3.58;0.88;;;17.50;99.90;;;;;;5030646;28;20436;-59
2023/10/30 12:32:37;;;;;;;3.50;0.80;;;17.10;99.90;;;;;;5033294;28;20056;-60
2023/10/30 12:35:10;;;;;;;5.53;0.98;;;16.80;99.90;;;;;;5032981;28;20140;-59
2023/10/30 12:37:38;;;;;;;7.97;1.48;;;16.40;99.90;;;;;;5033505;28;20022;-59
2023/10/30 12:40:06;;;;;;;5.00;0.95;;;16.00;99.90;;;;;;5032902;28;20022;-60
2023/10/30 12:42:39;;;;;;;2.30;0.70;;;15.80;99.90;;;;;;5032851;28;20044;-59